Time;durP1;ratioP1;P1;durP2;ratioP2;P2;SDS_P1;SDS_P2;PMS_P1;PMS_P2;Temp;Humidity;BMP_temperature;BMP_pressure;BME280_temperature;BME280_humidity;BME280_pressure;Samples;Min_cycle;Max_cycle;Signal;HPM_P1;HPM_P2
2023/08/13 08:50:50;;;;;;;;;;;;;;;24.31;69.17;100074.13;1086290;54;19950;-87
2023/08/13 08:51:54;;;;;;;;;;;;;;;24.39;69.27;100081.16;1086806;54;19943;-88
2023/08/13 08:53:01;;;;;;;;;;;;;;;24.43;68.87;100077.72;1086407;47;19944;-89
2023/08/13 08:54:04;;;;;;;;;;;;;;;24.40;68.85;100083.63;1086865;47;19939;-88
2023/08/13 08:55:05;;;;;;;;;;;;;;;24.43;68.65;100077.72;1086894;47;21145;-88
2023/08/13 08:56:09;;;;;;;;;;;;;;;24.38;67.80;100085.75;1086745;47;19939;-87
2023/08/13 08:57:10;;;;;;;;;;;;;;;24.37;67.79;100080.53;1086844;47;19938;-86
2023/08/13 08:58:15;;;;;;;;;;;;;;;24.55;67.69;100066.78;1087203;39;20781;-85
2023/08/13 08:59:26;;;;;;;;;;;;;;;24.43;67.19;100072.25;1086835;47;19964;-87
2023/08/13 09:00:32;;;;;;;;;;;;;;;24.50;67.34;100077.59;1086838;47;19938;-85
2023/08/13 09:01:35;;;;;;;;;;;;;;;24.56;67.20;100075.81;1086798;47;20961;-87
2023/08/13 09:02:43;;;;;;;;;;;;;;;24.77;66.57;100066.22;1086805;47;21355;-88
2023/08/13 09:03:53;;;;;;;;;;;;;;;24.90;66.50;100070.63;1086875;47;19942;-90
2023/08/13 09:05:00;;;;;;;;;;;;;;;25.01;66.23;100071.66;1086785;47;19963;-89
2023/08/13 09:06:05;;;;;;;;;;;;;;;24.98;66.14;100063.97;1087292;39;20734;-88
2023/08/13 09:07:08;;;;;;;;;;;;;;;25.03;65.97;100067.59;1086771;47;19965;-87
2023/08/13 09:08:13;;;;;;;;;;;;;;;25.19;65.74;100059.75;1086822;47;19978;-89
2023/08/13 09:09:18;;;;;;;;;;;;;;;24.97;65.56;100065.03;1086776;46;19945;-88
2023/08/13 09:10:21;;;;;;;;;;;;;;;24.84;65.71;100055.19;1086691;47;19945;-88
2023/08/13 09:11:32;;;;;;;;;;;;;;;24.86;65.84;100058.47;1086810;47;19938;-88
2023/08/13 09:12:36;;;;;;;;;;;;;;;24.68;66.26;100060.28;1086715;54;21099;-89
2023/08/13 09:13:49;;;;;;;;;;;;;;;24.75;66.60;100055.50;1086827;54;19943;-88
2023/08/13 09:14:55;;;;;;;;;;;;;;;25.03;65.86;100053.94;1086837;47;19946;-88
2023/08/13 09:15:58;;;;;;;;;;;;;;;25.26;65.17;100044.03;1086844;46;20002;-87
2023/08/13 09:17:01;;;;;;;;;;;;;;;25.38;64.80;100050.28;1086784;54;19942;-91
2023/08/13 09:18:08;;;;;;;;;;;;;;;25.44;64.54;100042.22;1086809;47;19968;-90
2023/08/13 09:19:18;;;;;;;;;;;;;;;25.48;64.54;100037.91;1086702;46;19939;-88
2023/08/13 09:20:22;;;;;;;;;;;;;;;25.27;63.93;100040.22;1086714;47;20713;-86
2023/08/13 09:21:29;;;;;;;;;;;;;;;25.42;64.21;100039.72;1086686;47;19966;-87
2023/08/13 09:22:36;;;;;;;;;;;;;;;25.42;64.05;100044.34;1086631;47;19942;-86
2023/08/13 09:23:37;;;;;;;;;;;;;;;25.28;64.15;100044.63;1086687;54;19942;-87
2023/08/13 09:24:42;;;;;;;;;;;;;;;25.46;64.25;100034.59;1086915;47;20007;-88
2023/08/13 09:25:42;;;;;;;;;;;;;;;25.54;64.10;100042.41;1086841;47;20002;-87
2023/08/13 09:26:46;;;;;;;;;;;;;;;25.48;63.81;100033.25;1087646;39;20599;-86
2023/08/13 09:27:47;;;;;;;;;;;;;;;25.31;63.62;100038.66;1088202;39;20794;-86
2023/08/13 09:28:50;;;;;;;;;;;;;;;25.16;64.26;100035.59;1086754;54;19947;-87
2023/08/13 09:29:55;;;;;;;;;;;;;;;25.05;64.26;100031.84;1086697;47;19938;-88
2023/08/13 09:30:59;;;;;;;;;;;;;;;25.07;64.72;100038.72;1086743;54;19943;-91
2023/08/13 09:32:18;;;;;;;;;;;;;;;25.14;64.79;100035.84;1086320;47;19950;-88
2023/08/13 09:33:26;;;;;;;;;;;;;;;25.37;64.21;100032.22;1086231;47;19954;-87
2023/08/13 09:34:28;;;;;;;;;;;;;;;25.43;62.96;100035.06;1087280;39;20786;-87
2023/08/13 09:35:33;;;;;;;;;;;;;;;25.50;63.81;100030.31;1087100;39;20895;-88
2023/08/13 09:36:43;;;;;;;;;;;;;;;25.48;63.59;100029.72;1086810;46;19939;-87
2023/08/13 09:37:46;;;;;;;;;;;;;;;25.51;63.42;100037.41;1086661;47;19939;-87
2023/08/13 09:38:47;;;;;;;;;;;;;;;25.59;63.25;100034.31;1086777;47;19950;-86
2023/08/13 09:39:53;;;;;;;;;;;;;;;25.56;62.94;100034.78;1086820;54;19942;-88
2023/08/13 09:41:01;;;;;;;;;;;;;;;25.34;62.81;100029.13;1086782;47;19939;-87
2023/08/13 09:42:10;;;;;;;;;;;;;;;25.20;62.97;100032.16;1086806;54;19943;-90
2023/08/13 09:43:16;;;;;;;;;;;;;;;25.12;62.45;100035.25;1086817;47;19939;-88
2023/08/13 09:44:20;;;;;;;;;;;;;;;25.12;62.54;100023.50;1086803;47;19969;-89
2023/08/13 09:45:22;;;;;;;;;;;;;;;25.12;62.36;100028.97;1088673;39;20671;-89
2023/08/13 09:46:31;;;;;;;;;;;;;;;25.32;62.42;100026.63;1086728;47;19942;-89
2023/08/13 09:47:33;;;;;;;;;;;;;;;25.51;62.46;100026.47;1086649;47;20036;-88
2023/08/13 09:48:38;;;;;;;;;;;;;;;25.58;62.00;100024.44;1086651;47;19950;-88
2023/08/13 09:49:42;;;;;;;;;;;;;;;25.82;61.50;100024.31;1086714;47;19938;-87
2023/08/13 09:50:47;;;;;;;;;;;;;;;26.07;61.22;100028.56;1086748;47;19969;-86
2023/08/13 09:51:51;;;;;;;;;;;;;;;26.27;60.02;100019.88;1087148;54;19942;-86
2023/08/13 09:52:56;;;;;;;;;;;;;;;26.42;59.98;100022.03;1087531;47;19943;-86
2023/08/13 09:54:13;;;;;;;;;;;;;;;26.50;60.16;100016.13;1087648;47;19950;-85
2023/08/13 09:55:23;;;;;;;;;;;;;;;26.71;59.70;100006.25;1087814;47;19942;-85
2023/08/13 09:56:28;;;;;;;;;;;;;;;26.81;59.02;100019.34;1086941;47;19942;-82
2023/08/13 09:57:34;;;;;;;;;;;;;;;26.79;58.56;100010.53;1086701;47;20022;-85
2023/08/13 09:58:36;;;;;;;;;;;;;;;26.75;58.89;100017.56;1086748;47;19943;-86
2023/08/13 09:59:40;;;;;;;;;;;;;;;26.76;58.50;100008.25;1086724;47;19983;-86
2023/08/13 10:00:41;;;;;;;;;;;;;;;26.81;58.31;100016.59;1088147;39;20691;-86
2023/08/13 10:01:45;;;;;;;;;;;;;;;27.05;57.03;100013.59;1086662;54;19954;-85
2023/08/13 10:02:48;;;;;;;;;;;;;;;27.34;57.01;100008.72;1086613;47;19942;-86
2023/08/13 10:03:54;;;;;;;;;;;;;;;27.54;57.00;100008.16;1086679;47;19950;-86
2023/08/13 10:04:57;;;;;;;;;;;;;;;27.63;56.41;100010.41;1086709;46;20035;-85
2023/08/13 10:06:01;;;;;;;;;;;;;;;27.72;55.84;100006.13;1088565;39;21104;-86
2023/08/13 10:07:07;;;;;;;;;;;;;;;27.35;56.22;100009.56;1086589;54;19942;-84
2023/08/13 10:08:11;;;;;;;;;;;;;;;27.65;56.13;100008.25;1086630;47;19943;-85
2023/08/13 10:09:14;;;;;;;;;;;;;;;27.37;55.82;100018.34;1086623;54;19966;-86
2023/08/13 10:10:18;;;;;;;;;;;;;;;27.61;55.79;100007.94;1087084;39;20779;-87
2023/08/13 10:11:19;;;;;;;;;;;;;;;27.62;55.58;100012.34;1086733;54;19942;-85
2023/08/13 10:12:23;;;;;;;;;;;;;;;27.71;55.20;100005.31;1086586;47;20849;-86
2023/08/13 10:13:31;;;;;;;;;;;;;;;27.57;56.14;100016.97;1086714;47;21167;-85
2023/08/13 10:14:35;;;;;;;;;;;;;;;27.40;55.95;100015.09;1086857;54;19968;-86
2023/08/13 10:15:39;;;;;;;;;;;;;;;27.25;56.27;100004.78;1086782;54;19946;-86
2023/08/13 10:16:44;;;;;;;;;;;;;;;27.19;56.03;100016.78;1086825;54;19958;-87
2023/08/13 10:17:45;;;;;;;;;;;;;;;27.13;55.92;100013.13;1086719;47;19946;-87
2023/08/13 10:18:49;;;;;;;;;;;;;;;27.23;56.12;100013.25;1086730;47;19939;-85
2023/08/13 10:19:54;;;;;;;;;;;;;;;27.18;55.74;100012.38;1086757;54;19942;-86
2023/08/13 10:20:57;;;;;;;;;;;;;;;27.24;56.50;100009.44;1086612;47;20846;-86
2023/08/13 10:21:58;;;;;;;;;;;;;;;27.31;56.08;100003.75;1088101;39;20603;-86
2023/08/13 10:23:07;;;;;;;;;;;;;;;27.19;55.85;100005.78;1086645;54;19969;-86
2023/08/13 10:24:19;;;;;;;;;;;;;;;27.15;56.35;100005.47;1086818;47;19946;-88
2023/08/13 10:25:29;;;;;;;;;;;;;;;27.19;56.17;100000.31;1086743;47;19954;-86
2023/08/13 10:26:30;;;;;;;;;;;;;;;27.18;56.57;99996.75;1086740;47;21143;-85
2023/08/13 10:27:38;;;;;;;;;;;;;;;27.16;56.27;100003.59;1086542;47;19943;-85
2023/08/13 10:28:39;;;;;;;;;;;;;;;27.17;56.08;100003.31;1088255;31;20717;-86
2023/08/13 10:29:41;;;;;;;;;;;;;;;27.24;55.57;100001.19;1086511;54;19943;-87
2023/08/13 10:30:45;;;;;;;;;;;;;;;27.41;54.93;100000.28;1086531;47;19943;-86
2023/08/13 10:31:53;;;;;;;;;;;;;;;27.55;54.60;100001.56;1086554;47;19973;-86
2023/08/13 10:32:56;;;;;;;;;;;;;;;27.81;54.06;99996.31;1086303;47;19943;-87
2023/08/13 10:34:01;;;;;;;;;;;;;;;27.99;53.84;99986.03;1086069;47;19943;-85
2023/08/13 10:35:21;;;;;;;;;;;;;;;28.11;53.34;99994.94;1086133;47;19950;-86
2023/08/13 10:36:39;;;;;;;;;;;;;;;28.18;53.74;99995.53;1086184;47;19987;-86
2023/08/13 10:37:51;;;;;;;;;;;;;;;27.83;53.54;99988.66;1086452;47;19943;-85
2023/08/13 10:38:55;;;;;;;;;;;;;;;28.03;53.62;100004.47;1086535;54;20015;-87
2023/08/13 10:40:09;;;;;;;;;;;;;;;28.11;53.83;99989.44;1086426;47;19982;-86
2023/08/13 10:41:12;;;;;;;;;;;;;;;27.77;53.67;99994.34;1086710;46;20000;-86
2023/08/13 10:42:28;;;;;;;;;;;;;;;27.81;54.06;99988.06;1086423;54;19942;-86
2023/08/13 10:43:32;;;;;;;;;;;;;;;27.75;53.92;99997.38;1086518;47;19998;-84
2023/08/13 10:44:39;;;;;;;;;;;;;;;27.82;53.65;99987.00;1086519;47;19950;-85
2023/08/13 10:45:43;;;;;;;;;;;;;;;27.85;53.31;99993.88;1087047;54;19949;-85
2023/08/13 10:46:48;;;;;;;;;;;;;;;27.81;53.47;99988.06;1086964;47;20006;-84
2023/08/13 10:47:57;;;;;;;;;;;;;;;27.75;53.64;99985.53;1086975;47;19950;-86
2023/08/13 10:48:58;;;;;;;;;;;;;;;27.77;53.63;99989.69;1086982;54;19942;-83
2023/08/13 10:49:59;;;;;;;;;;;;;;;27.79;53.08;99990.25;1087117;47;19934;-84
2023/08/13 10:51:11;;;;;;;;;;;;;;;27.66;53.40;99993.44;1087230;47;19950;-86
2023/08/13 10:52:14;;;;;;;;;;;;;;;27.65;53.49;99987.09;1087003;47;19939;-86
2023/08/13 10:53:22;;;;;;;;;;;;;;;27.54;53.41;99996.31;1086868;47;20022;-85
2023/08/13 10:54:28;;;;;;;;;;;;;;;27.27;54.60;99985.31;1089155;47;19994;-86
2023/08/13 10:55:38;;;;;;;;;;;;;;;27.32;54.24;99988.09;1086954;47;20046;-85
2023/08/13 10:56:52;;;;;;;;;;;;;;;27.36;54.34;99990.06;1086796;46;19943;-83
2023/08/13 10:58:07;;;;;;;;;;;;;;;27.21;55.30;99990.72;1086908;47;19938;-87
2023/08/13 10:59:18;;;;;;;;;;;;;;;27.32;54.92;99983.47;1086977;54;20010;-85
2023/08/13 11:00:26;;;;;;;;;;;;;;;27.33;54.62;99979.63;1088559;39;20654;-88
2023/08/13 11:01:34;;;;;;;;;;;;;;;27.34;54.53;99980.44;1086898;47;20897;-86
2023/08/13 11:02:55;;;;;;;;;;;;;;;27.05;55.07;99977.94;1086573;47;19969;-85
2023/08/13 11:03:59;;;;;;;;;;;;;;;27.01;54.86;99977.63;1086883;47;19946;-86
2023/08/13 11:05:03;;;;;;;;;;;;;;;26.98;55.28;99982.78;1086809;47;20936;-85
2023/08/13 11:06:11;;;;;;;;;;;;;;;27.07;55.25;99984.81;1086769;47;19943;-85
2023/08/13 11:07:13;;;;;;;;;;;;;;;27.17;55.02;99986.84;1086826;47;19938;-84
2023/08/13 11:08:22;;;;;;;;;;;;;;;27.20;55.03;99989.09;1086785;47;21269;-86
2023/08/13 11:09:32;;;;;;;;;;;;;;;27.25;54.92;99988.31;1087353;39;20206;-88
2023/08/13 11:10:36;;;;;;;;;;;;;;;27.30;55.04;99990.31;1086913;47;20025;-86
2023/08/13 11:11:44;;;;;;;;;;;;;;;27.19;55.82;99990.19;1087021;46;19942;-86
2023/08/13 11:12:48;;;;;;;;;;;;;;;27.21;55.61;99987.97;1086850;47;19946;-85
2023/08/13 11:13:49;;;;;;;;;;;;;;;27.21;55.47;99990.72;1086991;47;19990;-87
2023/08/13 11:14:56;;;;;;;;;;;;;;;27.17;55.22;99991.50;1086859;54;19973;-84
2023/08/13 11:16:05;;;;;;;;;;;;;;;27.00;55.71;99989.66;1086959;54;19954;-84
2023/08/13 11:17:08;;;;;;;;;;;;;;;27.05;55.56;99991.66;1086802;54;19943;-87
2023/08/13 11:18:10;;;;;;;;;;;;;;;27.13;55.25;99991.19;1086990;54;19942;-86
2023/08/13 11:19:19;;;;;;;;;;;;;;;27.14;55.37;99986.56;1086821;47;19965;-85
2023/08/13 11:20:23;;;;;;;;;;;;;;;27.13;55.17;99993.94;1087317;39;20272;-86
2023/08/13 11:21:31;;;;;;;;;;;;;;;27.14;55.41;99998.34;1086836;47;21070;-85
2023/08/13 11:22:32;;;;;;;;;;;;;;;27.19;55.27;100001.16;1086653;47;19951;-83
2023/08/13 11:23:38;;;;;;;;;;;;;;;27.06;55.71;100007.03;1086767;47;19946;-85
2023/08/13 11:24:45;;;;;;;;;;;;;;;26.71;56.25;100005.44;1086864;54;19954;-84
2023/08/13 11:25:51;;;;;;;;;;;;;;;26.47;56.63;100005.66;1087021;54;19949;-87
2023/08/13 11:26:57;;;;;;;;;;;;;;;26.53;56.29;100006.56;1086889;54;21023;-86
2023/08/13 11:28:12;;;;;;;;;;;;;;;26.45;56.78;100002.34;1086885;47;19942;-86
2023/08/13 11:29:19;;;;;;;;;;;;;;;26.28;57.28;100000.44;1086791;47;21002;-87
2023/08/13 11:30:23;;;;;;;;;;;;;;;26.17;57.90;99993.13;1086812;47;20757;-89
2023/08/13 11:31:24;;;;;;;;;;;;;;;26.24;57.66;100002.03;1086811;47;20044;-88
2023/08/13 11:32:27;;;;;;;;;;;;;;;26.39;57.28;100003.34;1088769;39;20816;-88
2023/08/13 11:33:28;;;;;;;;;;;;;;;26.30;57.12;100002.94;1086945;54;19942;-88
2023/08/13 11:34:34;;;;;;;;;;;;;;;26.43;57.39;100001.78;1086946;54;19998;-86
2023/08/13 11:35:35;;;;;;;;;;;;;;;26.40;57.53;99994.03;1087103;54;19999;-87
2023/08/13 11:36:39;;;;;;;;;;;;;;;26.42;58.09;99989.16;1086870;47;19943;-86
2023/08/13 11:37:41;;;;;;;;;;;;;;;26.39;57.98;99987.75;1086852;47;19969;-86
2023/08/13 11:38:46;;;;;;;;;;;;;;;26.42;57.77;99989.16;1086932;47;19990;-86
2023/08/13 11:39:49;;;;;;;;;;;;;;;26.46;57.33;99998.50;1086945;47;19946;-84
2023/08/13 11:40:56;;;;;;;;;;;;;;;26.44;57.34;99992.47;1086911;47;19970;-86
2023/08/13 11:42:06;;;;;;;;;;;;;;;26.49;57.35;99988.97;1086745;47;19939;-86
2023/08/13 11:43:16;;;;;;;;;;;;;;;26.52;57.41;99986.56;1086863;47;19969;-87
2023/08/13 11:44:17;;;;;;;;;;;;;;;26.46;57.44;99982.06;1086912;46;20061;-87
2023/08/13 11:45:22;;;;;;;;;;;;;;;26.49;57.55;99984.31;1086796;46;19939;-87
2023/08/13 11:46:23;;;;;;;;;;;;;;;26.49;57.28;99981.56;1086785;47;19950;-88
2023/08/13 11:47:27;;;;;;;;;;;;;;;26.52;57.15;99992.03;1086714;47;20962;-86
2023/08/13 11:48:32;;;;;;;;;;;;;;;26.51;57.18;99984.03;1086877;47;19945;-85
2023/08/13 11:49:45;;;;;;;;;;;;;;;26.46;57.36;99993.03;1086669;54;19947;-86
2023/08/13 11:50:53;;;;;;;;;;;;;;;26.46;57.57;99993.88;1086814;47;19962;-86
2023/08/13 11:51:58;;;;;;;;;;;;;;;26.39;57.72;99990.47;1086763;47;20654;-87
2023/08/13 11:53:05;;;;;;;;;;;;;;;26.18;58.11;99986.59;1086693;46;19946;-85
2023/08/13 11:54:12;;;;;;;;;;;;;;;26.13;58.71;99995.56;1086162;54;20846;-85
2023/08/13 11:55:18;;;;;;;;;;;;;;;26.21;58.45;99979.81;1086835;47;19939;-87
2023/08/13 11:56:22;;;;;;;;;;;;;;;26.24;58.43;99980.13;1086699;47;20753;-86
2023/08/13 11:57:25;;;;;;;;;;;;;;;26.29;58.24;99982.13;1086770;47;19939;-88
2023/08/13 11:58:26;;;;;;;;;;;;;;;26.32;58.19;99976.09;1087876;39;20917;-87
2023/08/13 11:59:33;;;;;;;;;;;;;;;26.35;58.42;99980.28;1086831;46;19962;-85
2023/08/13 12:00:36;;;;;;;;;;;;;;;26.38;58.19;99985.22;1087251;39;21122;-86
2023/08/13 12:01:37;;;;;;;;;;;;;;;26.37;58.44;99980.84;1086818;47;20845;-87
2023/08/13 12:02:41;;;;;;;;;;;;;;;26.22;58.71;99985.03;1087549;31;20857;-86
2023/08/13 12:03:43;;;;;;;;;;;;;;;26.14;58.94;99985.44;1086813;54;19968;-86
2023/08/13 12:04:50;;;;;;;;;;;;;;;26.20;58.58;99984.44;1086804;46;19949;-86
2023/08/13 12:05:53;;;;;;;;;;;;;;;26.15;58.62;99978.88;1087681;39;20892;-86
2023/08/13 12:06:56;;;;;;;;;;;;;;;26.18;58.80;99980.28;1086734;46;19987;-86
2023/08/13 12:08:06;;;;;;;;;;;;;;;26.05;59.11;99978.69;1086860;46;19993;-86
2023/08/13 12:09:13;;;;;;;;;;;;;;;26.12;58.96;99971.97;1087746;39;21109;-87
2023/08/13 12:10:16;;;;;;;;;;;;;;;26.16;58.96;99975.88;1086833;54;19942;-86
2023/08/13 12:11:20;;;;;;;;;;;;;;;26.20;58.70;99973.47;1086722;47;19943;-87
2023/08/13 12:12:24;;;;;;;;;;;;;;;26.13;59.18;99972.81;1087703;39;20903;-85
2023/08/13 12:13:28;;;;;;;;;;;;;;;26.11;59.28;99969.50;1086796;47;19938;-86
2023/08/13 12:14:28;;;;;;;;;;;;;;;26.04;59.31;99969.63;1086823;54;20053;-86
2023/08/13 12:15:57;;;;;;;;;;;;;;;26.08;59.30;99970.81;1087742;39;20795;-86
2023/08/13 12:17:34;;;;;;;;;;;;;;;26.19;59.10;99963.59;1086722;47;19946;-86
2023/08/13 12:18:38;;;;;;;;;;;;;;;26.25;59.05;99956.28;1086957;47;19950;-85
2023/08/13 12:19:44;;;;;;;;;;;;;;;26.29;59.47;99958.28;1086752;54;19942;-87
2023/08/13 12:20:51;;;;;;;;;;;;;;;26.33;59.44;99950.38;1086763;46;19939;-87
2023/08/13 12:21:54;;;;;;;;;;;;;;;26.37;59.19;99957.03;1086763;46;19958;-89
2023/08/13 12:22:55;;;;;;;;;;;;;;;26.27;59.21;99959.63;1086761;54;19968;-88
2023/08/13 12:23:59;;;;;;;;;;;;;;;26.34;58.82;99967.66;1086773;47;19966;-87
2023/08/13 12:25:00;;;;;;;;;;;;;;;26.24;59.40;99962.84;1088120;39;21121;-86
2023/08/13 12:26:04;;;;;;;;;;;;;;;26.20;59.56;99973.47;1086649;54;19943;-86
2023/08/13 12:27:13;;;;;;;;;;;;;;;26.22;59.73;99965.84;1086213;47;20870;-85
2023/08/13 12:28:14;;;;;;;;;;;;;;;26.26;59.69;99966.16;1086356;47;19962;-85
2023/08/13 12:29:27;;;;;;;;;;;;;;;;;;;;;
2023/08/13 12:30:31;;;;;;;;;;;;;;;26.30;59.96;99968.16;1086457;47;19943;-85
2023/08/13 12:31:37;;;;;;;;;;;;;;;26.24;60.34;99968.31;1086788;47;19969;-86
2023/08/13 12:32:45;;;;;;;;;;;;;;;26.20;60.79;99961.69;1086754;54;21039;-85
2023/08/13 12:33:46;;;;;;;;;;;;;;;26.23;60.49;99959.28;1086771;46;19950;-87
2023/08/13 12:34:50;;;;;;;;;;;;;;;26.12;60.89;99957.47;1087314;39;20991;-87
2023/08/13 12:35:51;;;;;;;;;;;;;;;26.16;61.27;99955.91;1086768;47;20226;-87
2023/08/13 12:36:54;;;;;;;;;;;;;;;26.20;60.77;99957.03;1086842;46;20055;-86
2023/08/13 12:37:55;;;;;;;;;;;;;;;26.21;61.15;99958.69;1086803;54;19995;-87
2023/08/13 12:38:58;;;;;;;;;;;;;;;26.28;60.77;99959.34;1086816;47;20790;-85
2023/08/13 12:39:59;;;;;;;;;;;;;;;26.34;60.57;99959.44;1086843;47;19939;-88
2023/08/13 12:41:20;;;;;;;;;;;;;;;26.38;60.68;99960.56;1086857;47;19984;-87
2023/08/13 12:42:30;;;;;;;;;;;;;;;26.36;61.04;99954.50;1086855;46;19943;-85
2023/08/13 12:43:33;;;;;;;;;;;;;;;26.43;60.82;99955.19;1086910;54;20022;-87
2023/08/13 12:44:38;;;;;;;;;;;;;;;26.45;60.46;99955.78;1086938;47;19949;-86
2023/08/13 12:45:44;;;;;;;;;;;;;;;26.47;60.01;99950.84;1086898;54;19939;-86
2023/08/13 12:46:45;;;;;;;;;;;;;;;26.47;60.44;99951.69;1086990;54;19987;-85
2023/08/13 12:47:52;;;;;;;;;;;;;;;26.41;60.77;99940.91;1087012;54;19949;-86
2023/08/13 12:48:53;;;;;;;;;;;;;;;26.41;60.77;99938.16;1086902;47;19939;-86
2023/08/13 12:49:59;;;;;;;;;;;;;;;26.45;60.74;99931.09;1086581;47;19938;-84
2023/08/13 12:51:10;;;;;;;;;;;;;;;26.53;60.52;99930.66;1086740;54;19988;-84
2023/08/13 12:52:19;;;;;;;;;;;;;;;26.58;60.24;99935.38;1086671;47;19939;-85
2023/08/13 12:53:20;;;;;;;;;;;;;;;26.67;60.16;99939.34;1086785;47;19938;-86
2023/08/13 12:54:26;;;;;;;;;;;;;;;26.77;59.88;99935.91;1086533;47;19977;-87
2023/08/13 12:55:30;;;;;;;;;;;;;;;26.86;59.64;99939.88;1086745;47;19951;-86
2023/08/13 12:56:36;;;;;;;;;;;;;;;26.93;59.41;99945.97;1088136;39;21067;-86
2023/08/13 12:57:38;;;;;;;;;;;;;;;26.98;59.03;99941.66;1086778;47;19946;-86
2023/08/13 12:58:46;;;;;;;;;;;;;;;26.90;58.72;99943.75;1086698;54;19998;-86
2023/08/13 12:59:58;;;;;;;;;;;;;;;26.97;58.27;99940.00;1086668;47;19938;-86
2023/08/13 13:01:01;;;;;;;;;;;;;;;26.93;58.36;99942.41;1086810;47;19938;-86
2023/08/13 13:02:02;;;;;;;;;;;;;;;27.03;58.54;99941.69;1086610;47;19946;-86
2023/08/13 13:03:06;;;;;;;;;;;;;;;27.08;58.24;99950.00;1088313;39;20759;-86
2023/08/13 13:04:09;;;;;;;;;;;;;;;27.06;58.10;99947.50;1086753;54;19942;-88
2023/08/13 13:05:12;;;;;;;;;;;;;;;27.09;57.73;99940.69;1086991;46;19966;-86
2023/08/13 13:06:13;;;;;;;;;;;;;;;27.04;57.76;99943.34;1086640;47;19939;-86
2023/08/13 13:07:18;;;;;;;;;;;;;;;27.11;57.57;99945.91;1086642;54;19948;-86
2023/08/13 13:08:22;;;;;;;;;;;;;;;27.19;57.37;99940.81;1086760;54;19942;-87
2023/08/13 13:09:26;;;;;;;;;;;;;;;27.08;57.58;99933.53;1086704;47;19939;-85
2023/08/13 13:10:29;;;;;;;;;;;;;;;27.10;57.49;99936.88;1086682;54;19955;-86
2023/08/13 13:11:34;;;;;;;;;;;;;;;26.87;57.61;99930.56;1086729;47;19950;-86
2023/08/13 13:12:38;;;;;;;;;;;;;;;26.88;58.24;99929.47;1086691;54;20037;-86
2023/08/13 13:13:41;;;;;;;;;;;;;;;26.99;57.31;99929.59;1087145;39;20615;-88
2023/08/13 13:14:42;;;;;;;;;;;;;;;27.07;57.50;99915.41;1086724;47;19955;-86
2023/08/13 13:15:45;;;;;;;;;;;;;;;27.14;57.17;99915.22;1086706;47;19938;-87
2023/08/13 13:16:49;;;;;;;;;;;;;;;27.20;56.78;99911.44;1086517;47;19998;-85
2023/08/13 13:17:52;;;;;;;;;;;;;;;27.05;56.20;99917.59;1086695;47;19943;-85
2023/08/13 13:18:56;;;;;;;;;;;;;;;26.90;56.26;99916.34;1086709;47;19970;-85
2023/08/13 13:19:57;;;;;;;;;;;;;;;26.80;55.77;99912.63;1086613;46;19973;-85
2023/08/13 13:21:00;;;;;;;;;;;;;;;26.56;56.52;99910.94;1086613;47;19949;-84
2023/08/13 13:22:02;;;;;;;;;;;;;;;26.63;56.25;99914.34;1086690;47;19949;-85
2023/08/13 13:23:06;;;;;;;;;;;;;;;26.77;56.09;99909.34;1086833;47;19946;-86
2023/08/13 13:24:07;;;;;;;;;;;;;;;26.92;55.82;99902.38;1086835;47;19946;-87
2023/08/13 13:25:11;;;;;;;;;;;;;;;26.97;55.88;99916.13;1086701;54;19942;-87
2023/08/13 13:26:14;;;;;;;;;;;;;;;27.05;55.92;99907.47;1086672;54;19942;-86
2023/08/13 13:27:18;;;;;;;;;;;;;;;27.11;55.76;99911.09;1086795;47;19994;-86
2023/08/13 13:28:24;;;;;;;;;;;;;;;27.13;56.59;99908.91;1086451;54;20828;-83
2023/08/13 13:29:27;;;;;;;;;;;;;;;26.88;58.00;99907.53;1086693;54;19973;-86
2023/08/13 13:30:32;;;;;;;;;;;;;;;26.65;58.72;99900.38;1088248;39;20673;-85
2023/08/13 13:31:33;;;;;;;;;;;;;;;26.49;59.70;99898.53;1086847;54;19943;-86
2023/08/13 13:32:36;;;;;;;;;;;;;;;26.49;59.55;99899.34;1086597;54;19943;-84
2023/08/13 13:33:37;;;;;;;;;;;;;;;26.53;59.77;99906.00;1088361;31;20761;-85
2023/08/13 13:34:41;;;;;;;;;;;;;;;26.43;59.96;99903.94;1086631;47;19943;-85
2023/08/13 13:35:41;;;;;;;;;;;;;;;26.38;60.57;99905.78;1086702;47;20022;-86
2023/08/13 13:36:45;;;;;;;;;;;;;;;26.41;60.17;99897.06;1086704;54;19950;-84
2023/08/13 13:37:49;;;;;;;;;;;;;;;26.51;60.39;99902.69;1086664;47;19949;-83
2023/08/13 13:38:49;;;;;;;;;;;;;;;26.68;59.68;99913.59;1086667;47;19995;-85
2023/08/13 13:39:53;;;;;;;;;;;;;;;26.81;59.26;99909.66;1087095;39;20772;-87
2023/08/13 13:40:54;;;;;;;;;;;;;;;26.87;59.30;99918.78;1086622;47;20030;-85
2023/08/13 13:41:59;;;;;;;;;;;;;;;26.90;58.67;99918.25;1086754;54;20012;-86
2023/08/13 13:43:00;;;;;;;;;;;;;;;26.82;58.82;99918.69;1086628;47;19950;-85
2023/08/13 13:44:21;;;;;;;;;;;;;;;26.78;58.89;99918.38;1086778;47;19953;-86
2023/08/13 13:45:22;;;;;;;;;;;;;;;26.92;58.60;99913.34;1086704;47;20837;-85
2023/08/13 13:46:27;;;;;;;;;;;;;;;27.00;58.33;99912.06;1086785;47;19946;-86
2023/08/13 13:47:39;;;;;;;;;;;;;;;27.08;57.78;99911.59;1086650;47;19946;-86
2023/08/13 13:48:43;;;;;;;;;;;;;;;27.17;56.98;99899.06;1086708;46;19943;-85
2023/08/13 13:49:46;;;;;;;;;;;;;;;27.17;56.67;99893.59;1086685;47;19950;-85
2023/08/13 13:50:50;;;;;;;;;;;;;;;27.19;56.97;99896.06;1086688;54;19943;-85
2023/08/13 13:51:53;;;;;;;;;;;;;;;27.14;57.05;99901.50;1086793;54;19942;-85
2023/08/13 13:52:57;;;;;;;;;;;;;;;27.19;56.63;99898.81;1086456;47;19943;-86
2023/08/13 13:53:58;;;;;;;;;;;;;;;27.29;56.70;99900.84;1086773;54;19950;-86
2023/08/13 13:55:03;;;;;;;;;;;;;;;27.33;56.56;99904.69;1086366;54;19943;-85
2023/08/13 13:56:06;;;;;;;;;;;;;;;27.27;57.08;99903.81;1090750;39;21008;-85
2023/08/13 13:57:10;;;;;;;;;;;;;;;27.30;56.53;99903.31;1086708;54;19969;-86
2023/08/13 13:58:11;;;;;;;;;;;;;;;27.39;56.57;99895.44;1086780;47;19939;-86
2023/08/13 13:59:17;;;;;;;;;;;;;;;27.42;56.23;99894.09;1086714;47;19968;-85
2023/08/13 14:00:18;;;;;;;;;;;;;;;27.18;55.88;99899.88;1086672;47;19938;-85
2023/08/13 14:01:23;;;;;;;;;;;;;;;27.17;55.86;99893.59;1086597;47;19945;-86
2023/08/13 14:02:24;;;;;;;;;;;;;;;27.05;55.78;99890.16;1087542;39;20678;-85
2023/08/13 14:03:28;;;;;;;;;;;;;;;26.94;56.29;99897.47;1086672;47;19945;-85
2023/08/13 14:04:28;;;;;;;;;;;;;;;26.97;56.36;99898.84;1086768;54;20014;-85
2023/08/13 14:05:32;;;;;;;;;;;;;;;26.86;56.38;99889.69;1086738;54;19942;-85
2023/08/13 14:06:33;;;;;;;;;;;;;;;26.91;56.49;99878.78;1086816;46;19969;-85
2023/08/13 14:07:37;;;;;;;;;;;;;;;26.99;55.89;99885.72;1086651;47;19945;-84
2023/08/13 14:08:38;;;;;;;;;;;;;;;26.93;56.02;99874.69;1089260;39;20765;-84
2023/08/13 14:09:41;;;;;;;;;;;;;;;26.80;56.51;99885.22;1086765;54;19942;-85
2023/08/13 14:10:42;;;;;;;;;;;;;;;26.87;56.90;99872.97;1086605;54;19969;-86
2023/08/13 14:11:46;;;;;;;;;;;;;;;26.94;56.30;99876.34;1086531;54;20338;-88
2023/08/13 14:12:46;;;;;;;;;;;;;;;27.04;55.57;99867.41;1086588;47;19945;-86
2023/08/13 14:13:50;;;;;;;;;;;;;;;26.97;55.84;99868.69;1086521;47;21075;-86
2023/08/13 14:14:53;;;;;;;;;;;;;;;26.90;56.37;99863.41;1086647;54;19970;-86
2023/08/13 14:15:59;;;;;;;;;;;;;;;26.96;55.60;99864.28;1086599;47;20020;-87
2023/08/13 14:17:00;;;;;;;;;;;;;;;26.94;54.19;99868.09;1086484;47;19954;-85
2023/08/13 14:18:04;;;;;;;;;;;;;;;26.99;54.58;99870.06;1086542;47;19943;-87
2023/08/13 14:19:04;;;;;;;;;;;;;;;27.05;54.40;99863.56;1086557;47;20067;-85
2023/08/13 14:20:09;;;;;;;;;;;;;;;27.12;54.48;99868.84;1087230;54;19943;-85
2023/08/13 14:21:10;;;;;;;;;;;;;;;27.27;53.98;99872.81;1087361;47;20662;-87
2023/08/13 14:22:14;;;;;;;;;;;;;;;27.35;53.40;99866.84;1087641;46;19946;-86
2023/08/13 14:23:14;;;;;;;;;;;;;;;27.43;53.26;99868.31;1088263;39;20805;-86
2023/08/13 14:24:18;;;;;;;;;;;;;;;27.43;53.39;99863.66;1087375;46;19945;-88
2023/08/13 14:25:20;;;;;;;;;;;;;;;27.36;53.41;99869.34;1087347;47;19942;-87
2023/08/13 14:26:23;;;;;;;;;;;;;;;27.30;53.50;99873.13;1087233;47;19939;-84
2023/08/13 14:27:24;;;;;;;;;;;;;;;27.17;53.69;99871.66;1087248;47;19958;-86
2023/08/13 14:28:28;;;;;;;;;;;;;;;27.15;53.49;99878.47;1087377;47;19939;-84